Main page
METAR-TAF:

METAR-TAF

Airports :

Kephalonia International Airport

Kefalonia, Greece

latitude: 38-07N, longitude: 020-30E, elevation: 19 m

Current weather observation

The report was made 11 hours and 9 minutes ago, at 14:50 UTC
Wind 16 kt from the Northwest
Temperature 23°C
Humidity 61%
Pressure 1018 hPa
Visibility 10 km or more
Few clouds at a height of 1500 ft

METAR: LGKF 251450Z 32016KT 9999 FEW015 23/15 Q1018

Time: 04:59 (01:59 UTC)

Forecast

The report was made 2 hours and 59 minutes ago, at 23:00 UTC
Forecast valid from 26 at 00 UTC to 26 at 09 UTC
Wind 12 kt from the North/Northwest
Visibility 10 km or more
Few clouds at a height of 1500 ft
Becoming
from 26 at 01 UTC to 26 at 03 UTC
Wind 5 kt from variable directions

TAF: LGKF 252300Z 2600/2609 33012KT 9999 FEW015 BECMG 2601/2603 VRB05KT

Weather observations and forecasts of more than 4000 airports (METAR and TAF reports).

The available stations are represented by yellow and red dots on the map.

Hover mouse over dot to see the name of the station.

Then click to see weather observations and forecasts.

To change the map : click on the green buttons with a black cross to zoom in, on the green button with a dash to zoom out, or on the green arrows for adjacent maps.


METAR-TAF: